KOCH/OCH METAR and TAF weather

Enter ICAO airport designator
Station Type Date Time Source
KOCH METAR 2019/06/17 11:56 UTC NOAA

KOCH 171156Z AUTO 10007KT 10SM CLR 19/19 A2990 RMK AO2 SLP127 60002 7//// T01940194 10194 20189 53005


Station Type Date Time Source
KOCH Decoded METAR 2019/06/17 11:56 UTC NOAA

Nacogdoches, A L Mangham Jr. Regional Airport, TX, United States (KOCH) 31-35N 094-43W
Jun 17, 2019 - 07:56 AM EDT / 2019.06.17 1156 UTC
Wind: from the E (100 degrees) at 8 MPH (7 KT):0
Visibility: 10 mile(s):0
Sky conditions: clear
Temperature: 66.9 F (19.4 C)
Dew Point: 66.9 F (19.4 C)
Relative Humidity: 100%
Pressure (altimeter): 29.9 in. Hg (1012 hPa)
Pressure tendency: 0.01 inches (0.5 hPa) higher than three hours ago
ob: KOCH 171156Z AUTO 10007KT 10SM CLR 19/19 A2990 RMK AO2 SLP127 60002 7//// T01940194 10194 20189 53005
cycle: 12

Station Type Date Time Source
KOCH TAF UTC NOAA

Error!

Example: see airport list